Time;durP1;ratioP1;P1;durP2;ratioP2;P2;SDS_P1;SDS_P2;PMS_P1;PMS_P2;Temp;Humidity;BMP_temperature;BMP_pressure;BME280_temperature;BME280_humidity;BME280_pressure;Samples;Min_cycle;Max_cycle;Signal;HPM_P1;HPM_P2
2022/12/01 00:01:05;;;;;;;;;;;2.00;99.90;;;;;;5035137;28;19998;-66
2022/12/01 00:03:32;;;;;;;;;;;2.10;99.90;;;;;;5032182;28;19929;-65
2022/12/01 00:06:02;;;;;;;;;;;2.00;99.90;;;;;;5035984;28;19928;-64
2022/12/01 00:08:29;;;;;;;;;;;2.10;99.90;;;;;;5034397;28;19935;-65
2022/12/01 00:11:02;;;;;;;;;;;2.10;99.90;;;;;;5034765;28;19928;-63
2022/12/01 00:13:29;;;;;;;;;;;2.10;99.90;;;;;;5041157;28;19929;-66
2022/12/01 00:15:55;;;;;;;;;;;2.10;99.90;;;;;;5034289;28;19933;-66
2022/12/01 00:18:22;;;;;;;;;;;2.10;99.90;;;;;;5032416;28;20050;-65
2022/12/01 00:20:54;;;;;;;;;;;2.10;99.90;;;;;;5033069;28;20481;-66
2022/12/01 00:23:21;;;;;;;;;;;2.10;99.90;;;;;;5030910;28;19937;-67
2022/12/01 00:25:48;;;;;;;;;;;2.10;99.90;;;;;;5031617;28;19935;-67
2022/12/01 00:28:15;;;;;;;;;;;2.10;99.90;;;;;;5031983;28;19932;-68
2022/12/01 00:30:41;;;;;;;;;;;2.10;99.90;;;;;;5031011;28;20007;-65
2022/12/01 00:33:08;;;;;;;;;;;2.10;99.90;;;;;;5032320;28;19964;-67
2022/12/01 00:35:35;;;;;;;;;;;2.10;99.90;;;;;;5033037;28;19929;-64
2022/12/01 00:38:01;;;;;;;;;;;2.10;99.90;;;;;;5036540;28;20027;-64
2022/12/01 00:40:28;;;;;;;;;;;2.10;99.90;;;;;;5032714;28;19929;-66
2022/12/01 00:42:54;;;;;;;;;;;2.10;99.90;;;;;;5033142;28;19929;-67
2022/12/01 00:45:21;;;;;;;;;;;2.00;99.90;;;;;;5030582;28;20030;-65
2022/12/01 00:47:48;;;;;;;;;;;2.10;99.90;;;;;;5030341;28;19939;-65
2022/12/01 00:50:14;;;;;;;;;;;2.10;99.90;;;;;;5033536;28;20024;-66
2022/12/01 00:52:41;;;;;;;;;;;2.10;99.90;;;;;;5030628;28;20223;-64
2022/12/01 00:55:08;;;;;;;;;;;2.10;99.90;;;;;;5030209;28;19928;-67
2022/12/01 00:57:34;;;;;;;;;;;2.10;99.90;;;;;;5033596;28;20600;-66
2022/12/01 01:00:01;;;;;;;;;;;2.10;99.90;;;;;;5035750;28;19968;-67
2022/12/01 01:02:28;;;;;;;;;;;2.10;99.90;;;;;;5032540;28;19982;-66
2022/12/01 01:04:54;;;;;;;;;;;2.10;99.90;;;;;;5031569;28;19935;-64
2022/12/01 01:07:21;;;;;;;;;;;2.10;99.90;;;;;;5029224;28;20342;-66
2022/12/01 01:09:48;;;;;;;;;;;2.10;99.90;;;;;;5028684;28;20361;-66
2022/12/01 01:12:15;;;;;;;;;;;2.10;99.90;;;;;;5042153;28;20656;-66
2022/12/01 01:14:41;;;;;;;;;;;2.10;99.90;;;;;;5037901;28;20815;-64
2022/12/01 01:17:08;;;;;;;;;;;2.10;99.90;;;;;;5038733;28;19928;-66
2022/12/01 01:19:35;;;;;;;;;;;2.10;99.90;;;;;;5036892;28;19936;-66
2022/12/01 01:22:01;;;;;;;;;;;2.10;99.90;;;;;;5034053;28;20541;-65
2022/12/01 01:24:28;;;;;;;;;;;2.10;99.90;;;;;;5034400;28;19928;-66
2022/12/01 01:26:55;;;;;;;;;;;2.10;99.90;;;;;;5035860;28;20007;-67
2022/12/01 01:29:21;;;;;;;;;;;2.10;99.90;;;;;;5034119;28;19929;-67
2022/12/01 01:31:48;;;;;;;;;;;2.10;99.90;;;;;;5037904;28;20227;-65
2022/12/01 01:34:14;;;;;;;;;;;2.10;99.90;;;;;;5033391;28;19928;-67
2022/12/01 01:36:42;;;;;;;;;;;2.10;99.90;;;;;;5034375;28;20775;-67
2022/12/01 01:39:08;;;;;;;;;;;2.10;99.90;;;;;;5038755;28;19929;-65
2022/12/01 01:41:35;;;;;;;;;;;2.10;99.90;;;;;;5036815;28;19929;-66
2022/12/01 01:44:02;;;;;;;;;;;2.10;99.90;;;;;;5036523;28;19931;-67
2022/12/01 01:46:29;;;;;;;;;;;2.10;99.90;;;;;;5033905;28;20578;-66
2022/12/01 01:48:59;;;;;;;;;;;2.00;99.90;;;;;;5034244;28;20436;-65
2022/12/01 01:51:34;;;;;;;;;;;2.10;99.90;;;;;;5033054;28;19936;-64
2022/12/01 01:54:06;;;;;;;;;;;2.00;99.90;;;;;;5033150;28;19936;-65
2022/12/01 01:56:34;;;;;;;;;;;2.00;99.90;;;;;;5035630;28;20743;-67
2022/12/01 01:59:01;;;;;;;;;;;2.00;99.90;;;;;;5035405;28;19932;-67
2022/12/01 02:01:28;;;;;;;;;;;2.00;99.90;;;;;;5033827;28;19935;-66
2022/12/01 02:03:55;;;;;;;;;;;2.00;99.90;;;;;;5035063;28;19928;-65
2022/12/01 02:06:23;;;;;;;;;;;2.00;99.90;;;;;;5035381;28;19940;-65
2022/12/01 02:08:50;;;;;;;;;;;2.00;99.90;;;;;;5034857;28;19929;-66
2022/12/01 02:11:19;;;;;;;;;;;2.00;99.90;;;;;;5036965;28;19978;-67
2022/12/01 02:13:46;;;;;;;;;;;2.00;99.90;;;;;;5033987;28;19929;-66
2022/12/01 02:16:28;;;;;;;;;;;1.90;99.90;;;;;;5036189;28;19974;-67
2022/12/01 02:18:59;;;;;;;;;;;1.90;99.90;;;;;;5034628;28;20019;-64
2022/12/01 02:21:40;;;;;;;;;;;1.90;99.90;;;;;;5035110;28;19929;-65
2022/12/01 02:24:22;;;;;;;;;;;1.90;99.90;;;;;;5032643;28;19954;-66
2022/12/01 02:26:48;;;;;;;;;;;1.90;99.90;;;;;;5031963;28;19952;-65
2022/12/01 02:29:27;;;;;;;;;;;1.90;99.90;;;;;;5033531;28;19951;-66
2022/12/01 02:32:12;;;;;;;;;;;1.90;99.90;;;;;;5034601;28;20586;-66
2022/12/01 02:34:51;;;;;;;;;;;1.90;99.90;;;;;;5034552;28;19929;-67
2022/12/01 02:37:23;;;;;;;;;;;1.90;99.90;;;;;;5034488;28;19933;-67
2022/12/01 02:39:58;;;;;;;;;;;1.90;99.90;;;;;;5035478;28;20621;-67
2022/12/01 02:42:48;;;;;;;;;;;1.90;99.90;;;;;;5036462;28;19928;-67
2022/12/01 02:45:41;;;;;;;;;;;1.90;99.90;;;;;;5032101;28;19929;-66
2022/12/01 02:48:11;;;;;;;;;;;1.90;99.90;;;;;;5034513;28;19928;-66
2022/12/01 02:50:39;;;;;;;;;;;1.90;99.90;;;;;;5033185;28;20015;-64
2022/12/01 02:53:10;;;;;;;;;;;1.90;99.90;;;;;;5034714;28;20031;-67
2022/12/01 02:55:44;;;;;;;;;;;1.90;99.90;;;;;;5035667;28;19978;-64
2022/12/01 02:58:12;;;;;;;;;;;1.90;99.90;;;;;;5033216;28;19928;-67
2022/12/01 03:00:41;;;;;;;;;;;1.90;99.90;;;;;;5035430;28;20024;-66
2022/12/01 03:03:26;;;;;;;;;;;1.90;99.90;;;;;;5041794;28;19940;-66
2022/12/01 03:06:07;;;;;;;;;;;1.90;99.90;;;;;;5036183;28;20042;-67
2022/12/01 03:08:44;;;;;;;;;;;1.90;99.90;;;;;;5034242;28;19929;-64
2022/12/01 03:11:25;;;;;;;;;;;1.90;99.90;;;;;;5035366;28;19991;-65
2022/12/01 03:14:08;;;;;;;;;;;2.00;99.90;;;;;;5034985;28;19928;-67
2022/12/01 03:16:37;;;;;;;;;;;1.90;99.90;;;;;;5034525;28;20446;-66
2022/12/01 03:19:18;;;;;;;;;;;1.90;99.90;;;;;;5033377;28;20019;-66
2022/12/01 03:21:50;;;;;;;;;;;1.90;99.90;;;;;;5032789;28;20032;-65
2022/12/01 03:24:18;;;;;;;;;;;1.90;99.90;;;;;;5032859;28;20030;-66
2022/12/01 03:26:47;;;;;;;;;;;2.00;99.90;;;;;;5036548;28;20501;-64
2022/12/01 03:29:16;;;;;;;;;;;1.90;99.90;;;;;;5035731;28;20599;-64
2022/12/01 03:31:46;;;;;;;;;;;1.90;99.90;;;;;;5033297;28;19972;-67
2022/12/01 03:34:15;;;;;;;;;;;1.90;99.90;;;;;;5033814;28;20192;-65
2022/12/01 03:36:44;;;;;;;;;;;1.90;99.90;;;;;;5034858;28;20378;-65
2022/12/01 03:39:13;;;;;;;;;;;1.90;99.90;;;;;;5036881;28;19928;-66
2022/12/01 03:41:47;;;;;;;;;;;1.90;99.90;;;;;;5033518;28;20210;-66
2022/12/01 03:44:16;;;;;;;;;;;1.90;99.90;;;;;;5036164;28;20466;-66
2022/12/01 03:46:49;;;;;;;;;;;1.90;99.90;;;;;;5033322;28;20868;-67
2022/12/01 03:49:16;;;;;;;;;;;1.90;99.90;;;;;;5041400;28;19946;-68
2022/12/01 03:52:02;;;;;;;;;;;1.90;99.90;;;;;;5033149;28;19925;-65
2022/12/01 03:54:31;;;;;;;;;;;1.80;99.90;;;;;;5032992;28;20680;-65
2022/12/01 03:57:01;;;;;;;;;;;1.80;99.90;;;;;;5033354;28;20276;-65
2022/12/01 03:59:29;;;;;;;;;;;1.80;99.90;;;;;;5033381;28;20034;-64
2022/12/01 04:01:56;;;;;;;;;;;1.90;99.90;;;;;;5034462;28;19936;-66
2022/12/01 04:04:23;;;;;;;;;;;1.90;99.90;;;;;;5032045;28;19999;-65
2022/12/01 04:06:50;;;;;;;;;;;1.90;99.90;;;;;;5035742;28;20620;-66
2022/12/01 04:09:16;;;;;;;;;;;1.80;99.90;;;;;;5032127;28;20761;-67
2022/12/01 04:14:29;;;;;;;;;;;1.80;99.90;;;;;;5032448;28;19935;-66
2022/12/01 04:16:55;;;;;;;;;;;1.80;99.90;;;;;;5032839;28;20451;-68
2022/12/01 04:19:22;;;;;;;;;;;1.80;99.90;;;;;;5034059;28;19935;-67
2022/12/01 04:21:49;;;;;;;;;;;1.80;99.90;;;;;;5032807;28;19935;-66
2022/12/01 04:24:15;;;;;;;;;;;1.70;99.90;;;;;;5031142;28;19925;-68
2022/12/01 04:26:44;;;;;;;;;;;1.70;99.90;;;;;;5031937;28;19935;-67
2022/12/01 04:29:11;;;;;;;;;;;1.70;99.90;;;;;;5031379;28;20022;-68
2022/12/01 04:31:38;;;;;;;;;;;1.70;99.90;;;;;;5030340;28;20022;-64
2022/12/01 04:34:05;;;;;;;;;;;1.70;99.90;;;;;;5034470;28;19998;-66
2022/12/01 04:36:33;;;;;;;;;;;1.70;99.90;;;;;;5029856;28;19933;-68
2022/12/01 04:39:00;;;;;;;;;;;1.70;99.90;;;;;;5032325;28;20409;-68
2022/12/01 04:41:27;;;;;;;;;;;1.70;99.90;;;;;;5033351;28;19929;-67
2022/12/01 04:43:54;;;;;;;;;;;1.70;99.90;;;;;;5033669;28;19979;-67
2022/12/01 04:46:21;;;;;;;;;;;1.70;99.90;;;;;;5031486;28;19935;-66
2022/12/01 04:48:48;;;;;;;;;;;1.70;99.90;;;;;;5028108;28;19928;-68
2022/12/01 04:51:14;;;;;;;;;;;1.70;99.90;;;;;;5028628;28;20066;-67
2022/12/01 04:53:41;;;;;;;;;;;1.70;99.90;;;;;;5031442;28;19960;-67
2022/12/01 04:56:08;;;;;;;;;;;1.70;99.90;;;;;;5031748;28;19928;-68
2022/12/01 04:58:36;;;;;;;;;;;1.70;99.90;;;;;;5033395;28;19932;-67
2022/12/01 05:01:04;;;;;;;;;;;1.70;99.90;;;;;;5034781;28;19928;-67
2022/12/01 05:03:31;;;;;;;;;;;1.70;99.90;;;;;;5032195;28;19932;-67
2022/12/01 05:06:05;;;;;;;;;;;1.70;99.90;;;;;;5034151;28;20462;-66
2022/12/01 05:08:33;;;;;;;;;;;1.60;99.90;;;;;;5040455;28;19939;-68
2022/12/01 05:10:59;;;;;;;;;;;1.60;99.90;;;;;;5035760;28;19998;-67
2022/12/01 05:13:27;;;;;;;;;;;1.60;99.90;;;;;;5030433;28;19982;-67
2022/12/01 05:16:02;;;;;;;;;;;1.60;99.90;;;;;;5032470;28;20006;-67
2022/12/01 05:18:29;;;;;;;;;;;1.60;99.90;;;;;;5030207;28;20041;-66
2022/12/01 05:20:55;;;;;;;;;;;1.60;99.90;;;;;;5041066;28;20661;-66
2022/12/01 05:23:26;;;;;;;;;;;1.60;99.90;;;;;;5033367;28;19928;-66
2022/12/01 05:25:53;;;;;;;;;;;1.60;99.90;;;;;;5031398;28;19928;-65
2022/12/01 05:28:21;;;;;;;;;;;1.60;99.90;;;;;;5034425;28;20503;-65
2022/12/01 05:30:48;;;;;;;;;;;1.70;99.90;;;;;;5031153;28;19929;-66
2022/12/01 05:33:15;;;;;;;;;;;1.60;99.90;;;;;;5029713;28;20023;-66
2022/12/01 05:35:41;;;;;;;;;;;1.60;99.90;;;;;;5032945;28;20035;-63
2022/12/01 05:38:08;;;;;;;;;;;1.60;99.90;;;;;;5029269;28;19929;-66
2022/12/01 05:40:35;;;;;;;;;;;1.60;99.90;;;;;;5032601;28;19928;-67
2022/12/01 05:43:02;;;;;;;;;;;1.60;99.90;;;;;;5011124;28;19934;-66
2022/12/01 05:45:29;;;;;;;;;;;1.60;99.90;;;;;;5048803;28;19929;-66
2022/12/01 05:47:56;;;;;;;;;;;1.60;99.90;;;;;;5031647;28;19935;-64
2022/12/01 05:50:23;;;;;;;;;;;1.70;99.90;;;;;;5029826;28;19936;-64
2022/12/01 05:52:50;;;;;;;;;;;1.70;99.90;;;;;;5034967;28;19960;-64
2022/12/01 05:55:17;;;;;;;;;;;1.70;99.90;;;;;;5032832;28;19986;-67
2022/12/01 05:57:44;;;;;;;;;;;1.70;99.90;;;;;;5030372;28;19929;-65
2022/12/01 06:00:11;;;;;;;;;;;1.70;99.90;;;;;;5036176;28;20696;-65
2022/12/01 06:02:41;;;;;;;;;;;1.70;99.90;;;;;;5033496;28;19947;-66
2022/12/01 06:05:08;;;;;;;;;;;1.70;99.90;;;;;;5036685;28;19929;-65
2022/12/01 06:07:35;;;;;;;;;;;1.70;99.90;;;;;;5037073;28;19928;-64
2022/12/01 06:10:02;;;;;;;;;;;1.70;99.90;;;;;;5033220;28;19936;-65
2022/12/01 06:12:29;;;;;;;;;;;1.60;99.90;;;;;;5034978;28;20047;-64
2022/12/01 06:14:56;;;;;;;;;;;1.60;99.90;;;;;;5037065;28;20210;-64
2022/12/01 06:17:22;;;;;;;;;;;1.60;99.90;;;;;;5031421;28;20043;-65
2022/12/01 06:19:49;;;;;;;;;;;1.60;99.90;;;;;;5034904;28;19933;-65
2022/12/01 06:22:16;;;;;;;;;;;1.70;99.90;;;;;;5036021;28;19928;-64
2022/12/01 06:24:43;;;;;;;;;;;1.70;99.90;;;;;;5034951;28;19924;-53
2022/12/01 06:27:10;;;;;;;;;;;1.70;99.90;;;;;;5035621;28;19939;-54
2022/12/01 06:29:36;;;;;;;;;;;1.70;99.90;;;;;;5039456;28;20673;-55
2022/12/01 06:32:08;;;;;;;;;;;1.70;99.90;;;;;;5033034;28;19929;-55
2022/12/01 06:34:34;;;;;;;;;;;1.70;99.90;;;;;;5033298;28;19929;-52
2022/12/01 06:37:01;;;;;;;;;;;1.70;99.90;;;;;;5035441;28;19928;-53
2022/12/01 06:39:28;;;;;;;;;;;1.70;99.90;;;;;;5032512;28;19928;-52
2022/12/01 06:41:54;;;;;;;;;;;1.70;99.90;;;;;;5034884;28;19955;-53
2022/12/01 06:44:21;;;;;;;;;;;1.70;99.90;;;;;;5037049;28;19932;-52
2022/12/01 06:46:51;;;;;;;;;;;1.70;99.90;;;;;;5033619;28;20494;-54
2022/12/01 06:49:18;;;;;;;;;;;1.70;99.90;;;;;;5036777;28;20027;-50
2022/12/01 06:51:45;;;;;;;;;;;1.70;99.90;;;;;;5017679;28;19936;-55
2022/12/01 06:54:13;;;;;;;;;;;1.70;99.90;;;;;;5031617;28;20466;-53
2022/12/01 06:56:41;;;;;;;;;;;1.80;99.90;;;;;;5035158;28;20597;-53
2022/12/01 06:59:08;;;;;;;;;;;1.80;99.90;;;;;;5033404;28;19936;-53
2022/12/01 07:01:35;;;;;;;;;;;1.80;99.90;;;;;;5036420;28;19928;-52
2022/12/01 07:04:02;;;;;;;;;;;1.80;99.90;;;;;;5033727;28;19951;-54
2022/12/01 07:06:29;;;;;;;;;;;1.80;99.90;;;;;;5034065;28;19939;-54
2022/12/01 07:08:56;;;;;;;;;;;1.80;99.90;;;;;;5042715;28;20015;-52
2022/12/01 07:11:23;;;;;;;;;;;1.80;99.90;;;;;;5032700;28;19929;-55
2022/12/01 07:13:53;;;;;;;;;;;1.80;99.90;;;;;;5034512;28;19935;-53
2022/12/01 07:16:21;;;;;;;;;;;1.80;99.90;;;;;;5034722;28;20326;-54
2022/12/01 07:18:47;;;;;;;;;;;1.80;99.90;;;;;;5034765;28;19929;-57
2022/12/01 07:21:14;;;;;;;;;;;1.80;99.90;;;;;;5036243;28;19925;-54
2022/12/01 07:23:41;;;;;;;;;;;1.90;99.90;;;;;;5032578;28;19935;-53
2022/12/01 07:26:09;;;;;;;;;;;1.90;99.90;;;;;;5034287;28;19928;-55
2022/12/01 07:28:36;;;;;;;;;;;1.90;99.90;;;;;;5034261;28;19928;-53
2022/12/01 07:33:05;;;;;;;;;;;1.90;99.90;;;;;;5032597;28;20353;-54
2022/12/01 07:35:31;;;;;;;;;;;1.90;99.90;;;;;;5030315;28;20008;-56
2022/12/01 07:37:58;;;;;;;;;;;1.90;99.90;;;;;;5029713;28;20618;-55
2022/12/01 07:40:25;;;;;;;;;;;2.00;99.90;;;;;;5030397;28;19929;-52
2022/12/01 07:42:52;;;;;;;;;;;2.00;99.90;;;;;;5029370;28;19927;-51
2022/12/01 07:45:18;;;;;;;;;;;2.00;99.90;;;;;;5032372;28;19928;-53
2022/12/01 07:47:45;;;;;;;;;;;2.00;99.90;;;;;;5029912;28;20548;-54
2022/12/01 07:50:11;;;;;;;;;;;2.00;99.90;;;;;;5030016;28;19929;-55
2022/12/01 07:52:38;;;;;;;;;;;2.00;99.90;;;;;;5028816;28;19929;-53
2022/12/01 07:55:05;;;;;;;;;;;2.00;99.90;;;;;;5028399;28;20681;-54
2022/12/01 07:57:32;;;;;;;;;;;2.10;99.90;;;;;;5028406;28;19932;-55
2022/12/01 07:59:58;;;;;;;;;;;2.00;99.90;;;;;;5029537;28;19939;-53
2022/12/01 08:02:25;;;;;;;;;;;2.10;99.90;;;;;;5038409;28;20455;-55
2022/12/01 08:04:52;;;;;;;;;;;2.10;99.90;;;;;;5032582;28;19960;-54
2022/12/01 08:07:18;;;;;;;;;;;2.10;99.90;;;;;;5027380;28;19936;-53
2022/12/01 08:09:45;;;;;;;;;;;2.10;99.90;;;;;;5036903;28;19935;-53
2022/12/01 08:12:12;;;;;;;;;;;2.10;99.90;;;;;;5028674;28;19929;-57
2022/12/01 08:14:39;;;;;;;;;;;2.10;99.90;;;;;;5030674;28;20402;-52
2022/12/01 08:19:00;;;;;;;80.45;36.83;;;2.10;99.90;;;;;;5047450;27;21298;-53
2022/12/01 08:21:27;;;;;;;88.18;39.78;;;2.10;99.90;;;;;;5026894;28;20154;-53
2022/12/01 08:23:55;;;;;;;90.40;42.28;;;2.10;99.90;;;;;;5025457;28;20075;-54
2022/12/01 08:26:24;;;;;;;82.20;38.90;;;2.10;99.90;;;;;;5024868;28;20171;-55
2022/12/01 08:28:51;;;;;;;82.88;39.03;;;2.10;99.90;;;;;;5027998;28;20383;-56
2022/12/01 08:31:27;;;;;;;;;;;2.10;99.90;;;;;;5028054;28;20045;-56
2022/12/01 08:33:55;;;;;;;89.53;39.78;;;2.10;99.90;;;;;;5030438;28;19931;-53
2022/12/01 08:36:23;;;;;;;88.40;38.90;;;2.10;99.90;;;;;;5028887;28;20504;-55
2022/12/01 08:38:52;;;;;;;97.05;39.40;;;2.10;99.90;;;;;;5026932;28;20305;-54
2022/12/01 08:41:20;;;;;;;92.30;42.08;;;2.10;99.90;;;;;;5028845;28;20037;-55
2022/12/01 08:43:46;;;;;;;83.13;38.67;;;2.10;99.90;;;;;;5027359;28;20464;-54
2022/12/01 08:46:34;;;;;;;93.63;43.33;;;2.10;99.90;;;;;;5028399;28;20088;-56
2022/12/01 08:49:04;;;;;;;94.72;42.58;;;2.10;99.90;;;;;;5028881;28;20041;-59
2022/12/01 08:51:31;;;;;;;97.10;42.90;;;2.00;99.90;;;;;;5028128;28;20056;-57
2022/12/01 08:53:59;;;;;;;90.07;41.35;;;2.10;99.90;;;;;;5026326;28;20078;-54
2022/12/01 08:56:29;;;;;;;99.55;43.55;;;2.10;99.90;;;;;;5025970;28;20552;-55
2022/12/01 08:58:56;;;;;;;98.38;43.38;;;2.10;99.90;;;;;;5027238;28;20095;-56
2022/12/01 09:01:24;;;;;;;102.07;44.70;;;2.10;99.90;;;;;;5028360;28;20824;-55
2022/12/01 09:04:04;;;;;;;104.22;44.25;;;2.10;99.90;;;;;;5025574;28;20325;-54
2022/12/01 09:06:34;;;;;;;94.05;40.72;;;2.10;99.90;;;;;;5028367;28;20049;-56
2022/12/01 09:09:01;;;;;;;99.05;43.80;;;2.10;99.90;;;;;;5028175;28;20047;-54
2022/12/01 09:11:27;;;;;;;95.00;42.58;;;2.10;99.90;;;;;;5025541;28;20505;-55
2022/12/01 09:13:54;;;;;;;100.72;44.67;;;2.10;99.90;;;;;;5028858;28;20404;-56
2022/12/01 09:16:21;;;;;;;95.32;42.92;;;2.10;99.90;;;;;;5027133;28;20063;-54
2022/12/01 09:18:48;;;;;;;102.13;43.95;;;2.10;99.90;;;;;;5023783;28;20045;-56
2022/12/01 09:21:21;;;;;;;97.47;43.35;;;2.10;99.90;;;;;;5027391;28;20140;-57
2022/12/01 09:23:48;;;;;;;99.22;44.50;;;2.20;99.90;;;;;;5027354;28;20265;-55
2022/12/01 09:26:17;;;;;;;99.45;43.65;;;2.20;99.90;;;;;;5027499;28;20059;-55
2022/12/01 09:28:52;;;;;;;93.15;42.10;;;2.20;99.90;;;;;;5024279;28;20080;-57
2022/12/01 09:31:19;;;;;;;95.07;41.38;;;2.20;99.90;;;;;;5015653;28;20033;-55
2022/12/01 09:33:46;;;;;;;95.13;43.33;;;2.20;99.90;;;;;;5013533;28;20049;-53
2022/12/01 09:36:13;;;;;;;;;;;2.20;99.90;;;;;;5015664;28;20112;-55
2022/12/01 09:38:40;;;;;;;91.13;42.30;;;2.20;99.90;;;;;;5014649;28;20456;-56
2022/12/01 09:41:19;;;;;;;91.55;38.75;;;2.20;99.90;;;;;;5004514;28;20605;-56
2022/12/01 09:43:59;;;;;;;87.75;37.60;;;2.30;99.90;;;;;;5013402;28;20389;-54
2022/12/01 09:46:32;;;;;;;100.32;41.85;;;2.30;99.90;;;;;;5015133;28;20041;-55
2022/12/01 09:49:02;;;;;;;90.57;42.83;;;2.30;99.90;;;;;;5012236;28;20675;-55
2022/12/01 09:51:33;;;;;;;102.60;41.10;;;2.30;99.90;;;;;;5014084;28;20140;-55
2022/12/01 09:54:00;;;;;;;99.75;43.33;;;2.40;99.90;;;;;;5014132;28;20116;-53
2022/12/01 09:56:44;;;;;;;92.43;39.75;;;2.40;99.90;;;;;;5016172;28;20033;-54
2022/12/01 09:59:22;;;;;;;89.60;39.15;;;2.40;99.90;;;;;;5015194;28;20496;-55
2022/12/01 10:01:54;;;;;;;93.32;42.58;;;2.40;99.90;;;;;;5014834;28;20502;-53
2022/12/01 10:04:30;;;;;;;85.95;37.92;;;2.30;99.90;;;;;;5016961;28;20108;-53
2022/12/01 10:07:03;;;;;;;91.45;41.63;;;2.30;99.90;;;;;;5013283;28;20579;-55
2022/12/01 10:10:02;;;;;;;83.50;38.35;;;2.30;99.90;;;;;;5014142;28;20508;-54
2022/12/01 10:12:32;;;;;;;98.10;44.15;;;2.30;99.90;;;;;;5013595;28;20559;-53
2022/12/01 10:15:13;;;;;;;91.35;41.53;;;2.30;99.90;;;;;;5013445;28;20041;-53
2022/12/01 10:17:47;;;;;;;82.93;38.55;;;2.30;99.90;;;;;;5011596;28;20071;-53
2022/12/01 10:20:22;;;;;;;83.47;37.08;;;2.30;99.90;;;;;;5015363;28;20123;-57
2022/12/01 10:23:20;;;;;;;84.50;36.67;;;2.30;99.90;;;;;;5013176;28;20056;-53
2022/12/01 10:25:58;;;;;;;83.15;37.70;;;2.30;99.90;;;;;;5013990;28;20041;-53
2022/12/01 10:28:50;;;;;;;86.90;38.90;;;2.30;99.90;;;;;;5013992;28;20045;-53
2022/12/01 10:31:41;;;;;;;81.50;36.85;;;2.30;99.90;;;;;;5010729;28;20045;-55
2022/12/01 10:34:16;;;;;;;71.72;35.13;;;2.30;99.90;;;;;;5012414;28;20064;-52
2022/12/01 10:36:43;;;;;;;78.25;35.08;;;2.30;99.90;;;;;;5013641;28;20179;-53
2022/12/01 10:39:33;;;;;;;88.43;38.15;;;2.30;99.90;;;;;;5012332;28;20041;-54
2022/12/01 10:42:09;;;;;;;87.43;38.42;;;2.30;99.90;;;;;;5013450;28;20558;-55
2022/12/01 10:44:36;;;;;;;80.53;35.13;;;2.30;99.90;;;;;;5012823;28;20351;-55
2022/12/01 10:47:14;;;;;;;76.95;37.15;;;2.30;99.90;;;;;;5010039;28;20037;-55
2022/12/01 10:49:41;;;;;;;77.68;35.45;;;2.30;99.90;;;;;;5011037;28;20525;-53
2022/12/01 10:52:26;;;;;;;;;;;2.30;99.90;;;;;;5013335;28;20049;-53
2022/12/01 10:54:52;;;;;;;82.05;36.90;;;2.30;99.90;;;;;;5013412;28;20528;-55
2022/12/01 10:57:19;;;;;;;;;;;2.30;99.90;;;;;;5009959;28;20490;-53
2022/12/01 11:00:00;;;;;;;75.28;33.55;;;2.30;99.90;;;;;;5010752;28;20002;-54
2022/12/01 11:02:29;;;;;;;75.78;36.03;;;2.30;99.90;;;;;;5013471;28;20253;-52
2022/12/01 11:05:03;;;;;;;85.60;38.15;;;2.30;99.90;;;;;;5012577;28;20588;-52
2022/12/01 11:07:41;;;;;;;73.78;35.28;;;2.30;99.90;;;;;;5012771;28;20053;-56
2022/12/01 11:10:22;;;;;;;80.43;36.45;;;2.30;99.90;;;;;;5002932;28;20053;-55
2022/12/01 11:13:15;;;;;;;79.28;35.75;;;2.30;99.90;;;;;;5013038;28;20126;-54
2022/12/01 11:16:00;;;;;;;83.35;37.53;;;2.30;99.90;;;;;;5011368;28;20049;-57
2022/12/01 11:18:30;;;;;;;74.55;33.85;;;2.40;99.90;;;;;;5009609;28;20159;-52
2022/12/01 11:21:07;;;;;;;82.15;37.20;;;2.40;99.90;;;;;;5011113;28;20042;-52
2022/12/01 11:23:45;;;;;;;82.05;38.53;;;2.40;99.90;;;;;;5011209;28;20080;-56
2022/12/01 11:26:25;;;;;;;84.50;36.20;;;2.40;99.90;;;;;;5010609;28;20115;-55
2022/12/01 11:29:06;;;;;;;67.50;33.38;;;2.40;99.90;;;;;;5011761;28;20455;-56
2022/12/01 11:31:47;;;;;;;75.25;36.17;;;2.40;99.90;;;;;;5009929;28;20038;-56
2022/12/01 11:34:30;;;;;;;71.10;31.50;;;2.40;99.90;;;;;;5018098;28;20519;-53
2022/12/01 11:37:02;;;;;;;76.93;34.25;;;2.40;99.90;;;;;;5011424;28;20119;-54
2022/12/01 11:39:36;;;;;;;71.63;34.33;;;2.50;99.90;;;;;;5011535;28;20037;-54
2022/12/01 11:42:19;;;;;;;74.97;35.60;;;2.50;99.90;;;;;;5011620;28;20049;-54
2022/12/01 11:45:06;;;;;;;70.13;33.95;;;2.50;99.90;;;;;;5011746;28;20074;-56
2022/12/01 11:47:33;;;;;;;77.18;32.53;;;2.50;99.90;;;;;;5012389;28;20085;-57
2022/12/01 11:50:01;;;;;;;;;;;2.50;99.90;;;;;;5012557;28;20152;-54
2022/12/01 11:52:44;;;;;;;70.35;31.20;;;2.50;99.90;;;;;;5013667;28;19931;-55
2022/12/01 11:55:10;;;;;;;65.93;30.75;;;2.50;99.90;;;;;;5012019;28;20130;-54
2022/12/01 11:57:41;;;;;;;;;;;2.60;99.90;;;;;;5013171;28;20041;-55
2022/12/01 12:00:18;;;;;;;74.80;32.38;;;2.60;99.90;;;;;;5010325;28;19925;-53
2022/12/01 12:03:06;;;;;;;69.70;30.65;;;2.60;99.90;;;;;;5011680;28;20508;-56
2022/12/01 12:06:04;;;;;;;64.35;30.33;;;2.60;99.90;;;;;;5011323;28;20048;-51
2022/12/01 12:09:20;;;;;;;65.93;32.90;;;2.60;99.90;;;;;;5010666;28;20655;-55
2022/12/01 12:12:33;;;;;;;60.70;30.67;;;2.70;99.90;;;;;;5011824;28;20163;-53
2022/12/01 12:15:17;;;;;;;62.28;30.70;;;2.70;99.90;;;;;;4996454;28;20434;-53
2022/12/01 12:18:17;;;;;;;61.33;28.67;;;2.70;99.90;;;;;;5012053;28;20041;-55
2022/12/01 12:21:00;;;;;;;62.35;28.67;;;2.70;99.90;;;;;;5010850;28;20240;-53
2022/12/01 12:23:57;;;;;;;61.92;30.73;;;2.80;99.90;;;;;;5011677;28;20696;-54
2022/12/01 12:26:31;;;;;;;61.15;29.30;;;2.80;99.90;;;;;;5011207;28;20041;-52
2022/12/01 12:29:35;;;;;;;59.83;29.80;;;2.80;99.90;;;;;;5012679;28;20331;-55
2022/12/01 12:32:18;;;;;;;56.58;28.95;;;2.80;99.90;;;;;;5012189;28;20053;-56
2022/12/01 12:34:59;;;;;;;58.03;28.55;;;2.80;99.90;;;;;;5011431;28;20323;-56
2022/12/01 12:37:54;;;;;;;61.80;29.42;;;2.80;99.90;;;;;;5008707;28;20047;-56
2022/12/01 12:40:39;;;;;;;53.50;26.30;;;2.80;99.90;;;;;;5010019;28;20046;-54
2022/12/01 12:43:11;;;;;;;50.33;25.95;;;2.80;99.90;;;;;;5010634;28;20701;-54
2022/12/01 12:45:59;;;;;;;56.53;26.73;;;2.80;99.90;;;;;;5011826;28;20069;-57
2022/12/01 12:48:33;;;;;;;55.65;27.50;;;2.90;99.90;;;;;;5013415;28;20049;-53
2022/12/01 12:51:32;;;;;;;59.60;27.48;;;2.90;99.90;;;;;;5012111;28;20049;-55
2022/12/01 12:54:27;;;;;;;56.13;27.95;;;2.90;99.90;;;;;;5010814;28;20044;-53
2022/12/01 12:57:01;;;;;;;58.25;27.52;;;2.90;99.90;;;;;;5009440;28;20041;-55
2022/12/01 12:59:42;;;;;;;58.60;28.60;;;2.90;99.90;;;;;;5008089;28;20033;-54
2022/12/01 13:02:14;;;;;;;54.17;28.60;;;2.90;99.90;;;;;;5008124;28;20042;-55
2022/12/01 13:05:05;;;;;;;58.83;29.27;;;2.90;99.90;;;;;;5014182;28;20478;-54
2022/12/01 13:07:35;;;;;;;54.50;27.02;;;2.90;99.90;;;;;;5014750;28;20045;-55
2022/12/01 13:10:22;;;;;;;57.40;28.10;;;2.80;99.90;;;;;;5017588;28;20590;-54
2022/12/01 13:13:15;;;;;;;52.70;26.27;;;2.80;99.90;;;;;;5015837;28;20481;-54
2022/12/01 13:15:43;;;;;;;54.08;27.52;;;2.80;99.90;;;;;;5004828;28;20372;-54
2022/12/01 13:18:27;;;;;;;54.42;27.52;;;2.80;99.90;;;;;;5016658;28;20041;-55
2022/12/01 13:20:56;;;;;;;56.60;25.70;;;2.80;99.90;;;;;;5014951;28;20280;-53
2022/12/01 13:23:23;;;;;;;47.67;23.95;;;2.80;99.90;;;;;;5011889;28;20045;-52
2022/12/01 13:25:54;;;;;;;49.25;26.73;;;2.80;99.90;;;;;;5015017;28;20427;-55
2022/12/01 13:28:26;;;;;;;52.45;26.05;;;2.80;99.90;;;;;;5017034;28;20041;-54
2022/12/01 13:31:01;;;;;;;51.78;25.75;;;2.80;99.90;;;;;;5015076;28;20041;-53
2022/12/01 13:33:29;;;;;;;51.83;26.25;;;2.80;99.90;;;;;;5013458;28;20049;-53
2022/12/01 13:35:57;;;;;;;52.22;26.33;;;2.80;99.90;;;;;;5020494;28;20056;-57
2022/12/01 13:39:15;;;;;;;50.47;27.58;;;2.80;99.90;;;;;;5014477;28;20528;-55
2022/12/01 13:41:44;;;;;;;59.58;28.88;;;2.80;99.90;;;;;;5013809;28;20057;-56
2022/12/01 13:44:27;;;;;;;54.97;28.02;;;2.70;99.90;;;;;;5016274;28;20190;-54
2022/12/01 13:47:20;;;;;;;57.70;26.15;;;2.70;99.90;;;;;;5013423;28;20844;-56
2022/12/01 13:49:49;;;;;;;49.30;26.55;;;2.70;99.90;;;;;;5020109;28;20148;-57
2022/12/01 13:52:25;;;;;;;55.42;27.33;;;2.70;99.90;;;;;;5013751;28;20427;-56
2022/12/01 13:55:07;;;;;;;59.05;29.75;;;2.70;99.90;;;;;;5014376;28;20094;-56
2022/12/01 13:57:35;;;;;;;66.45;31.85;;;2.70;99.90;;;;;;5028595;28;20058;-52
2022/12/01 14:00:24;;;;;;;67.43;32.30;;;2.70;99.90;;;;;;5011821;28;20104;-53
2022/12/01 14:03:13;;;;;;;57.00;29.67;;;2.70;99.90;;;;;;5008653;28;20049;-57
2022/12/01 14:05:40;;;;;;;61.30;28.73;;;2.70;99.90;;;;;;5012023;28;20068;-57
2022/12/01 14:08:24;;;;;;;59.83;30.80;;;2.70;99.90;;;;;;5013006;28;20352;-55
2022/12/01 14:10:56;;;;;;;62.50;30.45;;;2.70;99.90;;;;;;5013968;28;20037;-56
2022/12/01 14:13:24;;;;;;;66.05;30.50;;;2.70;99.90;;;;;;5011825;28;20607;-54
2022/12/01 14:16:01;;;;;;;67.03;31.70;;;2.70;99.90;;;;;;5011462;28;20048;-55